createdAt,value
2022-08-26T00:02:16.168Z,4.20
2022-08-26T00:06:35.548Z,4.35
2022-08-26T00:10:52.822Z,4.53
2022-08-26T00:15:11.307Z,4.53
2022-08-26T00:19:27.781Z,4.55
2022-08-26T00:23:44.603Z,4.55
2022-08-26T00:28:01.264Z,4.93
2022-08-26T00:32:17.308Z,4.55
2022-08-26T00:36:33.764Z,4.90
2022-08-26T00:40:52.545Z,4.87
2022-08-26T00:45:11.563Z,4.60
2022-08-26T00:49:45.071Z,5.20
2022-08-26T00:54:05.688Z,4.15
2022-08-26T00:58:25.026Z,4.32
2022-08-26T01:02:46.794Z,5.32
2022-08-26T01:07:05.056Z,4.97
2022-08-26T01:11:21.632Z,4.78
2022-08-26T01:15:43.914Z,5.37
2022-08-26T01:20:45.762Z,5.07
2022-08-26T01:25:03.447Z,4.97
2022-08-26T01:29:20.289Z,5.30
2022-08-26T01:34:14.003Z,5.05
2022-08-26T01:38:30.850Z,4.87
2022-08-26T01:42:49.357Z,4.47
2022-08-26T01:47:06.776Z,4.50
2022-08-26T01:51:25.349Z,4.47
2022-08-26T01:55:44.672Z,5.18
2022-08-26T02:00:02.490Z,4.80
2022-08-26T02:04:28.827Z,5.00
2022-08-26T02:08:48.115Z,4.80
2022-08-26T02:13:09.103Z,4.70
2022-08-26T02:17:35.158Z,4.35
2022-08-26T02:21:52.228Z,4.57
2022-08-26T02:26:12.557Z,4.78
2022-08-26T02:30:34.257Z,5.03
2022-08-26T02:34:50.492Z,4.60
2022-08-26T02:39:07.394Z,4.85
2022-08-26T02:43:31.396Z,4.80
2022-08-26T02:47:49.871Z,4.47
2022-08-26T02:52:06.473Z,4.30
2022-08-26T02:56:22.811Z,5.10
2022-08-26T03:00:39.744Z,4.85
2022-08-26T03:05:11.428Z,4.85
2022-08-26T03:09:28.091Z,4.37
2022-08-26T03:13:44.431Z,4.85
2022-08-26T03:18:00.412Z,4.85
2022-08-26T03:22:16.997Z,4.40
2022-08-26T03:26:33.019Z,4.35
2022-08-26T03:30:49.317Z,4.70
2022-08-26T03:35:06.279Z,5.03
2022-08-26T03:39:22.575Z,4.03
2022-08-26T03:43:39.163Z,4.80
2022-08-26T03:47:57.824Z,4.40
2022-08-26T03:52:14.389Z,4.50
2022-08-26T03:56:33.474Z,4.57
2022-08-26T04:00:55.559Z,4.30
2022-08-26T04:05:13.710Z,4.87
2022-08-26T04:09:29.690Z,4.60
2022-08-26T04:13:46.194Z,4.65
2022-08-26T04:18:03.605Z,5.00
2022-08-26T04:22:24.840Z,4.68
2022-08-26T04:26:42.548Z,4.65
2022-08-26T04:30:59.097Z,4.25
2022-08-26T04:35:15.130Z,4.32
2022-08-26T04:39:31.607Z,4.15
2022-08-26T04:43:48.986Z,4.87
2022-08-26T04:48:05.132Z,4.65
2022-08-26T04:52:21.311Z,4.95
2022-08-26T04:56:41.575Z,4.57
2022-08-26T05:00:59.119Z,5.43
2022-08-26T05:05:15.625Z,5.00
2022-08-26T05:09:34.316Z,5.20
2022-08-26T05:13:50.426Z,4.93
2022-08-26T05:18:07.673Z,5.87
2022-08-26T05:22:23.800Z,4.57
2022-08-26T05:26:41.449Z,4.97
2022-08-26T05:30:57.922Z,5.43
2022-08-26T05:35:13.978Z,4.68
2022-08-26T05:39:33.443Z,5.25
2022-08-26T05:43:50.777Z,4.78
2022-08-26T05:48:08.409Z,4.60
2022-08-26T05:52:26.146Z,4.47
2022-08-26T05:56:42.405Z,4.55
2022-08-26T06:01:10.852Z,4.90
2022-08-26T06:05:27.600Z,4.87
2022-08-26T06:09:44.376Z,5.05
2022-08-26T06:14:06.916Z,5.30
2022-08-26T06:18:27.487Z,4.80
2022-08-26T06:23:03.508Z,5.40
2022-08-26T06:27:20.379Z,5.30
2022-08-26T06:31:37.019Z,5.05
2022-08-26T06:35:56.155Z,5.10
2022-08-26T06:40:14.909Z,4.70
2022-08-26T06:44:32.376Z,5.43
2022-08-26T06:48:48.986Z,4.93
2022-08-26T06:53:05.107Z,4.82
2022-08-26T06:57:21.306Z,4.65
2022-08-26T07:01:46.054Z,4.50
2022-08-26T07:06:03.481Z,4.30
2022-08-26T07:10:19.907Z,4.60
2022-08-26T07:14:36.449Z,4.40
2022-08-26T07:18:53.790Z,4.65
2022-08-26T07:23:11.864Z,4.75
2022-08-26T07:27:27.958Z,4.62
2022-08-26T07:31:45.323Z,4.28
2022-08-26T07:36:04.192Z,4.40
2022-08-26T07:40:20.572Z,4.00
2022-08-26T07:44:37.884Z,4.28
2022-08-26T07:48:54.042Z,3.65
2022-08-26T07:53:10.710Z,4.37
2022-08-26T07:57:28.509Z,3.80
2022-08-26T08:01:45.576Z,3.50
2022-08-26T08:06:01.703Z,4.05
2022-08-26T08:10:22.667Z,4.00
2022-08-26T08:14:42.271Z,4.28
2022-08-26T08:18:59.729Z,3.50
2022-08-26T08:23:16.834Z,3.90
2022-08-26T08:27:37.449Z,3.90
2022-08-26T08:31:56.704Z,3.78
2022-08-26T08:36:18.416Z,3.67
2022-08-26T08:45:02.933Z,3.60
2022-08-26T08:49:20.160Z,2.95
2022-08-26T08:53:43.189Z,3.90
2022-08-26T08:58:13.860Z,3.42
2022-08-26T09:02:37.065Z,3.55
2022-08-26T09:11:11.981Z,3.83
2022-08-26T09:15:59.807Z,3.42
2022-08-26T09:20:41.826Z,3.80
2022-08-26T09:25:02.572Z,3.47
2022-08-26T09:29:27.220Z,3.78
2022-08-26T09:33:43.453Z,4.00
2022-08-26T09:37:59.984Z,3.97
2022-08-26T09:42:23.373Z,3.25
2022-08-26T09:47:04.319Z,3.28
2022-08-26T09:51:32.027Z,3.42
2022-08-26T09:55:51.366Z,4.22
2022-08-26T10:00:30.353Z,3.72
2022-08-26T10:04:55.316Z,3.62
2022-08-26T10:09:18.027Z,4.25
2022-08-26T10:13:37.698Z,4.07
2022-08-26T10:18:17.576Z,3.65
2022-08-26T10:22:39.206Z,3.95
2022-08-26T10:27:05.996Z,3.53
2022-08-26T10:32:21.350Z,3.85
2022-08-26T10:41:32.342Z,3.53
2022-08-26T10:45:52.095Z,4.22
2022-08-26T10:50:08.387Z,4.32
2022-08-26T10:54:31.282Z,4.03
2022-08-26T10:59:12.247Z,3.15
2022-08-26T11:03:45.607Z,3.60
2022-08-26T11:08:30.911Z,3.75
2022-08-26T11:12:49.227Z,3.62
2022-08-26T11:17:08.951Z,3.45
2022-08-26T11:22:01.216Z,3.33
2022-08-26T11:26:37.633Z,4.45
2022-08-26T11:30:57.987Z,3.30
2022-08-26T11:35:20.678Z,3.20
2022-08-26T11:39:53.860Z,3.08
2022-08-26T11:44:11.563Z,2.72
2022-08-26T11:48:30.844Z,4.05
2022-08-26T11:53:19.232Z,3.08
2022-08-26T11:57:45.526Z,2.90
2022-08-26T12:02:01.750Z,3.25
2022-08-26T12:06:31.373Z,3.37
2022-08-26T12:10:49.118Z,2.70
2022-08-26T12:15:12.325Z,3.50
2022-08-26T12:19:33.005Z,3.03
2022-08-26T12:23:52.009Z,3.30
2022-08-26T12:28:09.280Z,2.85
2022-08-26T12:32:25.406Z,2.97
2022-08-26T12:36:53.039Z,3.35
2022-08-26T12:41:09.082Z,3.08
2022-08-26T12:45:37.743Z,3.28
2022-08-26T12:50:06.022Z,3.00
2022-08-26T12:54:41.937Z,2.72
2022-08-26T12:59:23.232Z,3.00
2022-08-26T13:03:43.785Z,4.15
2022-08-26T13:08:10.185Z,3.00
2022-08-26T13:12:34.490Z,3.10
2022-08-26T13:16:50.956Z,2.80
2022-08-26T13:21:21.975Z,2.83
2022-08-26T13:25:38.042Z,3.00
2022-08-26T13:29:55.053Z,2.62
2022-08-26T13:34:14.305Z,3.45
2022-08-26T13:38:33.246Z,3.58
2022-08-26T13:42:50.199Z,3.25
2022-08-26T13:47:07.023Z,3.28
2022-08-26T13:51:23.425Z,3.28
2022-08-26T13:55:39.391Z,4.07
2022-08-26T13:59:57.203Z,3.80
2022-08-26T14:04:13.295Z,3.25
2022-08-26T14:08:29.418Z,2.58
2022-08-26T14:12:45.875Z,3.45
2022-08-26T14:17:02.222Z,3.40
2022-08-26T14:21:18.489Z,3.42
2022-08-26T14:25:34.440Z,3.30
2022-08-26T14:29:50.410Z,2.83
2022-08-26T14:34:08.069Z,3.95
2022-08-26T14:38:24.024Z,2.92
2022-08-26T14:42:41.512Z,2.85
2022-08-26T14:46:59.480Z,2.80
2022-08-26T14:51:15.776Z,4.00
2022-08-26T14:55:33.608Z,3.22
2022-08-26T14:59:50.609Z,3.20
2022-08-26T15:04:06.842Z,2.60
2022-08-26T15:08:22.810Z,3.37
2022-08-26T15:12:40.367Z,2.95
2022-08-26T15:16:57.340Z,3.20
2022-08-26T15:21:15.122Z,3.05
2022-08-26T15:25:32.343Z,2.95
2022-08-26T15:29:48.330Z,2.87
2022-08-26T15:34:13.308Z,2.90
2022-08-26T15:38:33.910Z,3.35
2022-08-26T15:42:57.520Z,3.28
2022-08-26T15:47:17.382Z,2.83
2022-08-26T15:51:45.727Z,3.42
2022-08-26T15:56:02.884Z,3.45
2022-08-26T16:00:20.066Z,3.55
2022-08-26T16:04:36.135Z,3.65
2022-08-26T16:08:52.156Z,3.58
2022-08-26T16:13:10.392Z,3.75
2022-08-26T16:17:29.926Z,3.58
2022-08-26T16:21:46.576Z,3.78
2022-08-26T16:26:13.441Z,3.40
2022-08-26T16:30:29.523Z,3.65
2022-08-26T16:34:56.263Z,3.78
2022-08-26T16:39:13.073Z,3.55
2022-08-26T16:43:29.289Z,3.50
2022-08-26T16:47:45.387Z,3.22
2022-08-26T16:52:01.388Z,3.83
2022-08-26T16:56:19.911Z,3.05
2022-08-26T17:00:36.383Z,3.28
2022-08-26T17:04:52.783Z,3.40
2022-08-26T17:09:09.771Z,3.35
2022-08-26T17:13:35.094Z,3.62
2022-08-26T17:17:55.230Z,4.40
2022-08-26T17:22:11.936Z,4.00
2022-08-26T17:26:29.200Z,4.28
2022-08-26T17:30:45.484Z,4.57
2022-08-26T17:35:02.052Z,4.90
2022-08-26T17:39:18.371Z,4.03
2022-08-26T17:43:34.471Z,3.58
2022-08-26T17:47:50.473Z,11.85
2022-08-26T17:52:10.959Z,11.73
2022-08-26T17:56:29.381Z,10.65
2022-08-26T18:00:50.721Z,15.75
2022-08-26T18:05:08.427Z,8.55
2022-08-26T18:09:24.456Z,4.72
2022-08-26T18:13:47.350Z,4.18
2022-08-26T18:18:03.863Z,4.22
2022-08-26T18:22:19.838Z,4.50
2022-08-26T18:26:37.985Z,4.10
2022-08-26T18:30:54.159Z,3.90
2022-08-26T18:35:13.620Z,4.18
2022-08-26T18:39:29.656Z,4.07
2022-08-26T18:43:46.306Z,4.32
2022-08-26T18:48:03.007Z,5.30
2022-08-26T18:52:25.634Z,4.40
2022-08-26T18:56:42.509Z,4.90
2022-08-26T19:00:58.780Z,4.57
2022-08-26T19:05:14.873Z,4.37
2022-08-26T19:09:31.862Z,4.60
2022-08-26T19:13:49.150Z,4.78
2022-08-26T19:18:07.911Z,3.83
2022-08-26T19:22:26.927Z,4.25
2022-08-26T19:26:45.597Z,4.00
2022-08-26T19:31:01.700Z,4.28
2022-08-26T19:35:17.842Z,4.60
2022-08-26T19:39:37.022Z,4.25
2022-08-26T19:43:53.032Z,4.78
2022-08-26T19:48:14.779Z,4.03
2022-08-26T19:52:30.745Z,4.45
2022-08-26T19:56:49.657Z,4.00
2022-08-26T20:01:06.751Z,3.67
2022-08-26T20:05:24.600Z,3.90
2022-08-26T20:09:40.600Z,4.37
2022-08-26T20:13:57.239Z,4.30
2022-08-26T20:18:32.151Z,3.78
2022-08-26T20:22:48.302Z,4.10
2022-08-26T20:27:07.689Z,3.20
2022-08-26T20:31:25.555Z,3.33
2022-08-26T20:35:41.527Z,3.83
2022-08-26T20:39:57.515Z,3.87
2022-08-26T20:44:14.023Z,4.40
2022-08-26T20:48:30.843Z,4.43
2022-08-26T20:52:47.555Z,4.00
2022-08-26T20:57:03.668Z,3.65
2022-08-26T21:01:22.858Z,3.92
2022-08-26T21:05:38.847Z,3.83
2022-08-26T21:09:54.809Z,4.37
2022-08-26T21:14:16.783Z,3.50
2022-08-26T21:18:33.612Z,3.78
2022-08-26T21:22:50.207Z,3.65
2022-08-26T21:27:06.230Z,4.95
2022-08-26T21:31:24.172Z,4.53
2022-08-26T21:35:41.043Z,3.30
2022-08-26T21:39:58.678Z,3.20
2022-08-26T21:44:16.570Z,3.60
2022-08-26T21:48:34.735Z,3.30
2022-08-26T21:52:50.755Z,3.50
2022-08-26T21:57:07.004Z,4.07
2022-08-26T22:01:24.572Z,3.33
2022-08-26T22:05:50.598Z,3.30
2022-08-26T22:10:07.151Z,3.33
2022-08-26T22:14:30.430Z,3.53
2022-08-26T22:18:47.121Z,3.58
2022-08-26T22:23:03.266Z,3.35
2022-08-26T22:27:19.286Z,3.70
2022-08-26T22:31:37.660Z,3.58
2022-08-26T22:35:55.796Z,3.65
2022-08-26T22:40:13.083Z,3.30
2022-08-26T22:44:29.229Z,3.55
2022-08-26T22:48:45.389Z,3.95
2022-08-26T22:53:06.345Z,3.87
2022-08-26T22:57:22.817Z,3.78
2022-08-26T23:01:41.420Z,3.10
2022-08-26T23:05:57.644Z,3.45
2022-08-26T23:10:13.606Z,3.72
2022-08-26T23:14:31.606Z,3.55
2022-08-26T23:18:47.675Z,3.25
2022-08-26T23:23:04.020Z,3.47
2022-08-26T23:27:20.046Z,4.07
2022-08-26T23:31:38.050Z,3.28
2022-08-26T23:35:54.147Z,3.37
2022-08-26T23:40:13.735Z,4.25
2022-08-26T23:44:30.991Z,3.40
2022-08-26T23:48:47.620Z,3.55
2022-08-26T23:53:06.331Z,3.50
2022-08-26T23:57:24.261Z,3.22
